createdAt,value
2023-04-01T00:02:12.214Z,35.30
2023-04-01T00:04:40.373Z,35.50
2023-04-01T00:07:08.628Z,35.10
2023-04-01T00:09:36.948Z,34.90
2023-04-01T00:12:06.586Z,34.80
2023-04-01T00:14:34.533Z,34.70
2023-04-01T00:17:02.804Z,34.40
2023-04-01T00:19:31.015Z,34.30
2023-04-01T00:21:59.028Z,34.10
2023-04-01T00:24:26.981Z,34.10
2023-04-01T00:26:54.899Z,34.40
2023-04-01T00:29:25.138Z,34.80
2023-04-01T00:31:53.058Z,35.00
2023-04-01T00:34:21.485Z,34.90
2023-04-01T00:36:49.380Z,34.70
2023-04-01T00:39:17.338Z,34.50
2023-04-01T00:41:45.285Z,34.30
2023-04-01T00:44:19.084Z,34.20
2023-04-01T00:46:48.498Z,34.10
2023-04-01T00:49:16.631Z,34.00
2023-04-01T00:51:44.576Z,33.90
2023-04-01T00:54:12.489Z,34.10
2023-04-01T00:56:41.805Z,34.50
2023-04-01T00:59:12.097Z,34.80
2023-04-01T01:01:40.085Z,34.80
2023-04-01T01:04:09.387Z,34.60
2023-04-01T01:06:41.688Z,34.40
2023-04-01T01:09:17.589Z,34.30
2023-04-01T01:11:47.675Z,34.10
2023-04-01T01:14:26.784Z,34.00
2023-04-01T01:16:57.575Z,33.90
2023-04-01T01:19:38.098Z,33.80
2023-04-01T01:22:14.194Z,34.00
2023-04-01T01:24:51.563Z,34.20
2023-04-01T01:27:19.485Z,34.80
2023-04-01T01:29:56.341Z,34.80
2023-04-01T01:32:36.043Z,34.50
2023-04-01T01:35:18.013Z,34.30
2023-04-01T01:37:46.057Z,34.20
2023-04-01T01:40:14.235Z,34.00
2023-04-01T01:42:43.540Z,34.00
2023-04-01T01:45:11.555Z,33.80
2023-04-01T01:47:39.574Z,33.70
2023-04-01T01:50:09.069Z,33.80
2023-04-01T01:52:38.383Z,34.30
2023-04-01T01:55:28.523Z,34.60
2023-04-01T01:57:56.915Z,34.80
2023-04-01T02:00:24.876Z,35.10
2023-04-01T02:02:52.848Z,35.30
2023-04-01T02:05:21.796Z,35.40
2023-04-01T02:07:55.054Z,35.10
2023-04-01T02:10:23.071Z,34.90
2023-04-01T02:12:51.807Z,34.60
2023-04-01T02:15:19.890Z,34.50
2023-04-01T02:17:47.915Z,34.40
2023-04-01T02:20:17.947Z,34.20
2023-04-01T02:22:47.217Z,34.10
2023-04-01T02:25:18.050Z,34.10
2023-04-01T02:27:46.460Z,34.50
2023-04-01T02:30:14.422Z,34.70
2023-04-01T02:32:42.529Z,35.00
2023-04-01T02:35:11.543Z,34.80
2023-04-01T02:37:40.519Z,34.60
2023-04-01T02:40:09.701Z,34.40
2023-04-01T02:42:39.037Z,34.30
2023-04-01T02:45:08.199Z,34.20
2023-04-01T02:47:36.187Z,34.00
2023-04-01T02:50:04.291Z,33.80
2023-04-01T02:52:32.286Z,33.80
2023-04-01T02:55:00.310Z,34.20
2023-04-01T02:57:30.154Z,34.60
2023-04-01T02:59:59.555Z,34.80
2023-04-01T03:02:27.965Z,34.80
2023-04-01T03:04:55.957Z,34.40
2023-04-01T03:07:23.909Z,34.30
2023-04-01T03:09:51.848Z,34.20
2023-04-01T03:12:19.933Z,34.00
2023-04-01T03:14:47.887Z,33.90
2023-04-01T03:17:17.213Z,33.80
2023-04-01T03:19:45.247Z,33.80
2023-04-01T03:22:13.264Z,34.00
2023-04-01T03:24:41.199Z,34.30
2023-04-01T03:27:09.137Z,34.60
2023-04-01T03:29:37.226Z,34.80
2023-04-01T03:32:05.348Z,34.50
2023-04-01T03:34:34.654Z,34.30
2023-04-01T03:37:02.664Z,34.20
2023-04-01T03:39:30.627Z,34.00
2023-04-01T03:41:58.584Z,33.90
2023-04-01T03:44:26.592Z,33.80
2023-04-01T03:46:54.652Z,33.60
2023-04-01T03:49:22.572Z,33.70
2023-04-01T03:51:51.852Z,34.00
2023-04-01T03:54:21.073Z,34.60
2023-04-01T03:56:49.135Z,34.80
2023-04-01T03:59:17.128Z,35.00
2023-04-01T04:01:45.124Z,35.10
2023-04-01T04:04:13.751Z,35.50
2023-04-01T04:06:41.740Z,35.20
2023-04-01T04:09:10.971Z,34.90
2023-04-01T04:11:38.902Z,34.80
2023-04-01T04:14:06.824Z,34.60
2023-04-01T04:16:37.458Z,34.50
2023-04-01T04:19:05.552Z,34.40
2023-04-01T04:21:33.557Z,34.10
2023-04-01T04:24:01.757Z,34.00
2023-04-01T04:26:31.320Z,34.30
2023-04-01T04:28:59.335Z,34.50
2023-04-01T04:31:27.504Z,34.90
2023-04-01T04:33:55.734Z,35.00
2023-04-01T04:36:23.984Z,34.60
2023-04-01T04:38:51.980Z,34.40
2023-04-01T04:41:20.274Z,34.40
2023-04-01T04:43:53.026Z,34.20
2023-04-01T04:46:21.171Z,34.10
2023-04-01T04:48:49.226Z,34.00
2023-04-01T04:51:17.472Z,33.80
2023-04-01T04:53:45.540Z,34.00
2023-04-01T04:56:13.519Z,34.40
2023-04-01T04:58:41.604Z,34.60
2023-04-01T05:01:11.804Z,34.80
2023-04-01T05:03:39.873Z,35.10
2023-04-01T05:06:08.218Z,34.40
2023-04-01T05:08:36.269Z,34.30
2023-04-01T05:11:04.932Z,34.10
2023-04-01T05:13:32.925Z,34.00
2023-04-01T05:16:00.912Z,33.90
2023-04-01T05:18:30.264Z,33.70
2023-04-01T05:20:58.246Z,33.60
2023-04-01T05:23:26.321Z,34.00
2023-04-01T05:25:54.367Z,34.50
2023-04-01T05:28:22.367Z,34.80
2023-04-01T05:30:50.496Z,34.40
2023-04-01T05:33:18.484Z,34.40
2023-04-01T05:35:47.842Z,34.20
2023-04-01T05:38:16.025Z,34.70
2023-04-01T05:40:43.947Z,34.00
2023-04-01T05:43:11.887Z,33.80
2023-04-01T05:45:39.954Z,33.70
2023-04-01T05:48:07.938Z,33.60
2023-04-01T05:50:35.909Z,33.80
2023-04-01T05:53:05.247Z,34.10
2023-04-01T05:55:33.393Z,34.60
2023-04-01T05:58:01.474Z,34.90
2023-04-01T06:00:29.448Z,35.10
2023-04-01T06:02:57.478Z,35.20
2023-04-01T06:05:27.375Z,35.30
2023-04-01T06:07:57.825Z,35.10
2023-04-01T06:10:31.482Z,34.80
2023-04-01T06:13:02.802Z,34.60
2023-04-01T06:15:39.829Z,34.50
2023-04-01T06:18:41.585Z,34.30
2023-04-01T06:21:17.037Z,34.20
2023-04-01T06:23:51.845Z,34.00
2023-04-01T06:26:26.241Z,34.20
2023-04-01T06:29:20.106Z,34.60
2023-04-01T06:32:04.053Z,34.90
2023-04-01T06:34:48.723Z,34.90
2023-04-01T06:37:36.456Z,34.60
2023-04-01T06:40:14.710Z,34.40
2023-04-01T06:42:56.305Z,34.20
2023-04-01T06:45:37.076Z,34.10
2023-04-01T06:48:13.998Z,34.00
2023-04-01T06:50:46.543Z,33.80
2023-04-01T06:53:16.277Z,33.80
2023-04-01T06:55:47.154Z,34.10
2023-04-01T06:58:21.650Z,34.40
2023-04-01T07:00:50.718Z,34.90
2023-04-01T07:03:21.652Z,34.50
2023-04-01T07:05:49.892Z,34.40
2023-04-01T07:08:19.777Z,34.20
2023-04-01T07:10:49.408Z,34.10
2023-04-01T07:13:23.080Z,34.00
2023-04-01T07:15:58.793Z,33.90
2023-04-01T07:18:30.775Z,33.80
2023-04-01T07:20:58.900Z,33.70
2023-04-01T07:23:28.508Z,34.00
2023-04-01T07:25:58.102Z,34.30
2023-04-01T07:28:29.367Z,35.30
2023-04-01T07:31:04.452Z,34.40
2023-04-01T07:33:35.590Z,34.30
2023-04-01T07:36:05.626Z,34.10
2023-04-01T07:38:36.519Z,34.00
2023-04-01T07:41:07.430Z,34.00
2023-04-01T07:43:43.351Z,33.80
2023-04-01T07:46:16.891Z,33.70
2023-04-01T07:48:50.919Z,33.60
2023-04-01T07:51:20.473Z,33.80
2023-04-01T07:53:50.454Z,34.10
2023-04-01T07:56:20.329Z,34.70
2023-04-01T07:58:55.423Z,34.90
2023-04-01T08:01:26.412Z,35.10
2023-04-01T08:04:03.723Z,35.30
2023-04-01T08:06:40.452Z,35.30
2023-04-01T08:09:24.453Z,34.90
2023-04-01T08:12:02.993Z,34.80
2023-04-01T08:14:51.616Z,34.60
2023-04-01T08:17:23.134Z,34.40
2023-04-01T08:20:02.862Z,34.20
2023-04-01T08:22:37.995Z,34.20
2023-04-01T08:25:14.135Z,33.90
2023-04-01T08:27:47.267Z,34.30
2023-04-01T08:30:29.700Z,34.60
2023-04-01T08:33:12.619Z,35.10
2023-04-01T08:35:45.662Z,34.80
2023-04-01T08:38:22.439Z,34.50
2023-04-01T08:41:20.443Z,34.40
2023-04-01T08:44:22.971Z,34.20
2023-04-01T08:47:23.322Z,34.10
2023-04-01T08:50:43.913Z,35.00
2023-04-01T08:53:22.468Z,35.00
2023-04-01T08:56:01.188Z,35.30
2023-04-01T08:59:13.325Z,35.60
2023-04-01T09:02:10.366Z,35.90
2023-04-01T09:05:01.998Z,35.40
2023-04-01T09:07:42.434Z,35.60
2023-04-01T09:10:33.347Z,35.20
2023-04-01T09:13:26.996Z,35.00
2023-04-01T09:16:31.689Z,35.10
2023-04-01T09:19:46.907Z,34.90
2023-04-01T09:22:28.826Z,35.50
2023-04-01T09:25:09.395Z,35.20
2023-04-01T09:27:49.748Z,35.50
2023-04-01T09:30:40.623Z,35.80
2023-04-01T09:34:01.930Z,35.40
2023-04-01T09:36:44.433Z,35.20
2023-04-01T09:39:41.960Z,35.30
2023-04-01T09:43:06.286Z,35.10
2023-04-01T09:45:55.893Z,36.30
2023-04-01T09:48:45.440Z,36.80
2023-04-01T09:51:31.499Z,36.70
2023-04-01T09:54:17.165Z,36.90
2023-04-01T09:57:33.164Z,37.40
2023-04-01T10:00:45.246Z,37.80
2023-04-01T10:03:56.175Z,37.80
2023-04-01T10:07:20.878Z,37.70
2023-04-01T10:10:10.611Z,37.10
2023-04-01T10:13:16.255Z,36.80
2023-04-01T10:16:06.651Z,36.50
2023-04-01T10:25:17.443Z,35.70
2023-04-01T10:28:24.297Z,36.00
2023-04-01T10:31:15.778Z,36.10
2023-04-01T10:34:08.172Z,36.90
2023-04-01T10:36:55.272Z,36.80
2023-04-01T10:39:36.998Z,36.30
2023-04-01T10:42:30.976Z,36.10
2023-04-01T10:45:29.606Z,36.10
2023-04-01T10:48:25.722Z,36.00
2023-04-01T10:51:28.225Z,35.70
2023-04-01T10:54:20.034Z,35.80
2023-04-01T10:56:52.355Z,36.40
2023-04-01T10:59:51.531Z,36.90
2023-04-01T11:02:58.863Z,36.60
2023-04-01T11:06:17.941Z,36.20
2023-04-01T11:09:27.413Z,36.00
2023-04-01T11:12:36.929Z,35.70
2023-04-01T11:15:32.051Z,35.60
2023-04-01T11:18:32.353Z,35.50
2023-04-01T11:21:19.950Z,35.40
2023-04-01T11:24:05.161Z,35.90
2023-04-01T11:26:42.986Z,36.40
2023-04-01T11:29:44.341Z,36.60
2023-04-01T11:32:28.323Z,36.00
2023-04-01T11:35:02.587Z,35.90
2023-04-01T11:37:36.907Z,35.80
2023-04-01T11:40:10.834Z,35.70
2023-04-01T11:42:43.048Z,35.50
2023-04-01T11:45:18.015Z,35.40
2023-04-01T11:47:54.447Z,35.30
2023-04-01T11:50:29.568Z,35.60
2023-04-01T11:53:06.776Z,36.00
2023-04-01T11:55:41.862Z,36.60
2023-04-01T11:58:26.073Z,36.80
2023-04-01T12:01:01.850Z,37.20
2023-04-01T12:03:45.693Z,37.50
2023-04-01T12:06:16.619Z,36.90
2023-04-01T12:08:48.842Z,36.60
2023-04-01T12:11:19.972Z,36.30
2023-04-01T12:13:51.832Z,36.20
2023-04-01T12:16:27.610Z,36.00
2023-04-01T12:18:59.151Z,35.90
2023-04-01T12:21:28.625Z,35.70
2023-04-01T12:24:27.863Z,36.00
2023-04-01T12:27:01.699Z,36.20
2023-04-01T12:29:57.124Z,36.30
2023-04-01T12:32:30.279Z,36.50
2023-04-01T12:35:18.324Z,36.40
2023-04-01T12:37:50.863Z,36.10
2023-04-01T12:40:53.580Z,36.00
2023-04-01T12:43:54.789Z,35.80
2023-04-01T12:46:24.717Z,35.70
2023-04-01T12:49:11.683Z,35.50
2023-04-01T12:52:03.246Z,35.30
2023-04-01T12:55:04.276Z,35.60
2023-04-01T12:58:11.337Z,35.80
2023-04-01T13:00:48.593Z,35.90
2023-04-01T13:03:29.964Z,35.90
2023-04-01T13:06:21.024Z,35.70
2023-04-01T13:08:54.819Z,35.60
2023-04-01T13:11:26.259Z,35.40
2023-04-01T13:14:15.927Z,35.30
2023-04-01T13:16:55.108Z,35.20
2023-04-01T13:19:25.507Z,35.00
2023-04-01T13:21:56.617Z,35.30
2023-04-01T13:24:33.245Z,35.40
2023-04-01T13:27:04.317Z,35.60
2023-04-01T13:29:34.070Z,36.20
2023-04-01T13:32:14.140Z,36.10
2023-04-01T13:34:50.649Z,35.90
2023-04-01T13:37:28.353Z,35.50
2023-04-01T13:40:29.805Z,35.10
2023-04-01T13:43:00.311Z,34.70
2023-04-01T13:45:31.576Z,34.20
2023-04-01T13:48:34.788Z,37.40
2023-04-01T13:51:25.580Z,33.60
2023-04-01T13:54:32.928Z,33.20
2023-04-01T13:57:10.681Z,33.20
2023-04-01T13:59:48.722Z,33.30
2023-04-01T14:02:27.117Z,33.30
2023-04-01T14:04:58.573Z,33.40
2023-04-01T14:07:39.990Z,33.20
2023-04-01T14:10:13.727Z,33.10
2023-04-01T14:12:45.791Z,32.70
2023-04-01T14:15:27.258Z,32.50
2023-04-01T14:18:34.920Z,32.30
2023-04-01T14:21:23.452Z,32.10
2023-04-01T14:24:04.128Z,32.10
2023-04-01T14:26:52.463Z,32.10
2023-04-01T14:29:26.291Z,32.10
2023-04-01T14:32:01.085Z,32.60
2023-04-01T14:34:41.145Z,32.50
2023-04-01T14:37:21.395Z,32.40
2023-04-01T14:40:05.187Z,32.20
2023-04-01T14:42:53.944Z,32.00
2023-04-01T14:45:55.154Z,31.90
2023-04-01T14:48:29.139Z,31.70
2023-04-01T14:50:58.090Z,31.50
2023-04-01T14:53:29.595Z,31.50
2023-04-01T14:55:58.140Z,31.70
2023-04-01T14:58:27.392Z,32.00
2023-04-01T15:01:04.868Z,32.30
2023-04-01T15:03:34.885Z,32.30
2023-04-01T15:06:42.224Z,32.30
2023-04-01T15:09:13.426Z,32.20
2023-04-01T15:11:49.947Z,32.20
2023-04-01T15:14:26.769Z,32.30
2023-04-01T15:17:07.477Z,32.20
2023-04-01T15:19:41.579Z,32.10
2023-04-01T15:22:28.199Z,32.00
2023-04-01T15:25:07.921Z,32.00
2023-04-01T15:27:43.710Z,32.20
2023-04-01T15:30:20.227Z,32.40
2023-04-01T15:32:55.205Z,32.30
2023-04-01T15:35:29.801Z,32.80
2023-04-01T15:37:58.537Z,32.30
2023-04-01T15:40:29.033Z,32.20
2023-04-01T15:43:03.987Z,32.00
2023-04-01T15:45:41.535Z,32.00
2023-04-01T15:48:24.891Z,31.90
2023-04-01T15:50:56.886Z,31.80
2023-04-01T15:53:48.812Z,31.90
2023-04-01T15:56:42.323Z,32.00
2023-04-01T15:59:18.640Z,32.30
2023-04-01T16:01:49.674Z,32.60
2023-04-01T16:04:41.914Z,32.80
2023-04-01T16:07:12.987Z,32.70
2023-04-01T16:10:01.476Z,32.60
2023-04-01T16:12:38.542Z,32.40
2023-04-01T16:15:13.484Z,32.30
2023-04-01T16:18:03.555Z,32.10
2023-04-01T16:20:44.907Z,32.10
2023-04-01T16:23:16.207Z,32.00
2023-04-01T16:25:48.393Z,31.90
2023-04-01T16:28:21.268Z,31.90
2023-04-01T16:30:50.377Z,32.10
2023-04-01T16:33:22.949Z,32.30
2023-04-01T16:35:56.832Z,32.50
2023-04-01T16:38:26.682Z,32.30
2023-04-01T16:41:02.764Z,32.10
2023-04-01T16:43:33.015Z,32.10
2023-04-01T16:46:38.761Z,32.00
2023-04-01T16:49:19.199Z,31.90
2023-04-01T16:51:51.055Z,31.90
2023-04-01T16:54:27.755Z,31.70
2023-04-01T16:56:57.174Z,31.90
2023-04-01T16:59:27.807Z,32.10
2023-04-01T17:01:59.408Z,32.30
2023-04-01T17:04:32.873Z,32.40
2023-04-01T17:07:08.367Z,32.30
2023-04-01T17:09:44.553Z,32.10
2023-04-01T17:12:15.676Z,32.10
2023-04-01T17:14:47.487Z,32.00
2023-04-01T17:17:33.950Z,31.30
2023-04-01T17:20:12.189Z,31.80
2023-04-01T17:22:43.482Z,31.60
2023-04-01T17:25:33.953Z,31.70
2023-04-01T17:28:05.600Z,32.00
2023-04-01T17:30:36.802Z,32.20
2023-04-01T17:33:28.954Z,32.20
2023-04-01T17:36:00.500Z,32.10
2023-04-01T17:38:44.977Z,32.00
2023-04-01T17:41:18.696Z,31.90
2023-04-01T17:43:49.320Z,31.80
2023-04-01T17:46:31.298Z,31.60
2023-04-01T17:49:08.488Z,31.70
2023-04-01T17:51:39.073Z,31.70
2023-04-01T17:54:15.093Z,32.00
2023-04-01T17:56:48.340Z,32.30
2023-04-01T17:59:20.602Z,32.50
2023-04-01T18:01:51.750Z,32.70
2023-04-01T18:04:51.065Z,32.90
2023-04-01T18:07:55.456Z,33.00
2023-04-01T18:10:27.769Z,32.80
2023-04-01T18:13:36.597Z,32.60
2023-04-01T18:16:14.228Z,32.60
2023-04-01T18:18:50.450Z,32.30
2023-04-01T18:21:21.693Z,32.20
2023-04-01T18:24:01.626Z,32.10
2023-04-01T18:26:33.816Z,32.00
2023-04-01T18:29:06.385Z,32.80
2023-04-01T18:31:35.574Z,32.30
2023-04-01T18:34:09.032Z,32.50
2023-04-01T18:36:42.434Z,32.50
2023-04-01T18:39:13.322Z,32.50
2023-04-01T18:41:49.846Z,32.60
2023-04-01T18:44:33.253Z,32.60
2023-04-01T18:47:06.332Z,32.40
2023-04-01T18:49:41.466Z,32.40
2023-04-01T18:52:11.752Z,32.30
2023-04-01T18:54:44.137Z,32.30
2023-04-01T18:57:14.971Z,32.30
2023-04-01T18:59:44.508Z,32.50
2023-04-01T19:02:19.821Z,32.70
2023-04-01T19:04:51.528Z,32.90
2023-04-01T19:07:45.030Z,33.00
2023-04-01T19:10:24.116Z,32.80
2023-04-01T19:13:02.888Z,32.80
2023-04-01T19:15:34.799Z,32.60
2023-04-01T19:18:13.890Z,32.50
2023-04-01T19:20:43.837Z,32.40
2023-04-01T19:23:40.381Z,32.40
2023-04-01T19:26:13.605Z,32.50
2023-04-01T19:28:46.933Z,32.30
2023-04-01T19:31:24.481Z,32.20
2023-04-01T19:33:56.310Z,32.20
2023-04-01T19:36:27.516Z,32.20
2023-04-01T19:38:57.861Z,32.10
2023-04-01T19:41:33.326Z,32.10
2023-04-01T19:44:07.636Z,32.10
2023-04-01T19:46:36.634Z,32.00
2023-04-01T19:49:25.686Z,32.00
2023-04-01T19:51:56.580Z,32.10
2023-04-01T19:54:30.514Z,32.00
2023-04-01T19:57:03.238Z,31.90
2023-04-01T19:59:36.013Z,32.10
2023-04-01T20:02:16.808Z,32.20
2023-04-01T20:04:45.843Z,32.30
2023-04-01T20:07:15.917Z,32.60
2023-04-01T20:09:54.627Z,32.90
2023-04-01T20:12:37.648Z,33.00
2023-04-01T20:15:20.858Z,33.30
2023-04-01T20:17:49.013Z,33.40
2023-04-01T20:20:21.295Z,33.50
2023-04-01T20:23:03.180Z,33.70
2023-04-01T20:25:33.401Z,33.90
2023-04-01T20:28:04.337Z,34.40
2023-04-01T20:30:52.680Z,34.80
2023-04-01T20:33:29.282Z,35.30
2023-04-01T20:36:03.713Z,35.70
2023-04-01T20:39:14.084Z,36.20
2023-04-01T20:41:45.239Z,36.70
2023-04-01T20:44:13.492Z,36.60
2023-04-01T20:46:48.105Z,36.40
2023-04-01T20:49:41.211Z,36.40
2023-04-01T20:52:28.235Z,36.30
2023-04-01T20:55:08.932Z,36.20
2023-04-01T20:57:37.918Z,36.10
2023-04-01T21:00:18.511Z,36.10
2023-04-01T21:03:02.475Z,36.30
2023-04-01T21:05:53.228Z,36.50
2023-04-01T21:08:24.190Z,36.70
2023-04-01T21:10:54.173Z,36.80
2023-04-01T21:13:33.629Z,36.70
2023-04-01T21:16:08.394Z,36.70
2023-04-01T21:19:00.684Z,36.60
2023-04-01T21:21:42.506Z,36.40
2023-04-01T21:24:40.660Z,36.30
2023-04-01T21:27:11.486Z,36.20
2023-04-01T21:29:45.550Z,36.10
2023-04-01T21:32:31.418Z,36.40
2023-04-01T21:35:02.541Z,36.60
2023-04-01T21:37:50.349Z,36.90
2023-04-01T21:40:40.021Z,36.90
2023-04-01T21:43:14.706Z,36.60
2023-04-01T21:45:51.799Z,36.50
2023-04-01T21:48:36.250Z,36.40
2023-04-01T21:51:55.867Z,36.30
2023-04-01T21:54:51.945Z,36.20
2023-04-01T21:57:57.083Z,36.00
2023-04-01T22:00:26.798Z,36.30
2023-04-01T22:03:27.261Z,36.50
2023-04-01T22:05:59.171Z,36.90
2023-04-01T22:08:43.953Z,36.70
2023-04-01T22:11:18.068Z,36.60
2023-04-01T22:13:50.594Z,36.40
2023-04-01T22:16:22.463Z,36.30
2023-04-01T22:18:53.020Z,36.20
2023-04-01T22:21:23.690Z,36.10
2023-04-01T22:23:56.187Z,36.00
2023-04-01T22:26:26.537Z,36.10
2023-04-01T22:28:57.350Z,36.30
2023-04-01T22:31:27.474Z,36.50
2023-04-01T22:33:59.277Z,36.90
2023-04-01T22:36:31.609Z,37.20
2023-04-01T22:39:13.156Z,37.50
2023-04-01T22:41:49.998Z,37.60
2023-04-01T22:44:23.219Z,37.30
2023-04-01T22:46:55.519Z,37.10
2023-04-01T22:49:25.009Z,36.90
2023-04-01T22:51:54.513Z,36.70
2023-04-01T22:54:24.960Z,36.50
2023-04-01T22:56:55.212Z,36.40
2023-04-01T22:59:25.944Z,36.30
2023-04-01T23:01:56.418Z,36.30
2023-04-01T23:04:26.704Z,36.50
2023-04-01T23:06:56.162Z,36.60
2023-04-01T23:09:25.886Z,37.00
2023-04-01T23:11:54.855Z,36.80
2023-04-01T23:14:34.640Z,36.70
2023-04-01T23:17:05.887Z,36.50
2023-04-01T23:19:36.089Z,36.40
2023-04-01T23:22:06.468Z,36.30
2023-04-01T23:24:37.286Z,36.20
2023-04-01T23:27:07.846Z,36.10
2023-04-01T23:29:37.249Z,36.10
2023-04-01T23:32:05.401Z,36.30
2023-04-01T23:34:33.517Z,36.40
2023-04-01T23:37:04.523Z,36.90
2023-04-01T23:39:35.511Z,36.70
2023-04-01T23:42:05.821Z,36.50
2023-04-01T23:44:34.014Z,36.40
2023-04-01T23:47:02.162Z,36.20
2023-04-01T23:49:32.389Z,36.20
2023-04-01T23:52:00.989Z,36.00
2023-04-01T23:54:33.704Z,35.90
2023-04-01T23:57:06.827Z,35.90
2023-04-01T23:59:37.021Z,36.10
